sensor_id;sensor_type;location;lat;lon;timestamp;pressure;altitude;pressure_sealevel;temperature;humidity
23339;BME280;11841;49.368;20.962;2023-04-08T00:01:27;95850.44;;;2.36;92.12
23339;BME280;11841;49.368;20.962;2023-04-08T00:04:13;95853.22;;;2.35;92.39
23339;BME280;11841;49.368;20.962;2023-04-08T00:06:58;95849.94;;;2.25;92.23
23339;BME280;11841;49.368;20.962;2023-04-08T00:09:43;95849.44;;;2.21;93.19
23339;BME280;11841;49.368;20.962;2023-04-08T00:12:29;95846.50;;;2.24;92.73
23339;BME280;11841;49.368;20.962;2023-04-08T00:15:15;95848.78;;;2.19;92.44
23339;BME280;11841;49.368;20.962;2023-04-08T00:18:00;95854.84;;;2.20;92.97
23339;BME280;11841;49.368;20.962;2023-04-08T00:20:46;95845.19;;;2.20;92.18
23339;BME280;11841;49.368;20.962;2023-04-08T00:23:31;95847.16;;;2.18;92.54
23339;BME280;11841;49.368;20.962;2023-04-08T00:26:16;95846.66;;;2.15;92.18
23339;BME280;11841;49.368;20.962;2023-04-08T00:29:02;95854.34;;;2.08;92.44
23339;BME280;11841;49.368;20.962;2023-04-08T00:31:47;95852.00;;;1.97;92.30
23339;BME280;11841;49.368;20.962;2023-04-08T00:34:33;95853.34;;;1.93;92.46
23339;BME280;11841;49.368;20.962;2023-04-08T00:37:18;95853.00;;;1.88;92.28
23339;BME280;11841;49.368;20.962;2023-04-08T00:40:04;95854.44;;;1.91;92.37
23339;BME280;11841;49.368;20.962;2023-04-08T00:42:49;95856.25;;;1.90;92.20
23339;BME280;11841;49.368;20.962;2023-04-08T00:45:35;95859.03;;;1.89;92.29
23339;BME280;11841;49.368;20.962;2023-04-08T00:48:20;95857.91;;;1.91;92.10
23339;BME280;11841;49.368;20.962;2023-04-08T00:51:05;95861.13;;;1.85;92.18
23339;BME280;11841;49.368;20.962;2023-04-08T00:53:52;95868.00;;;1.86;92.14
23339;BME280;11841;49.368;20.962;2023-04-08T00:56:37;95856.22;;;1.82;92.05
23339;BME280;11841;49.368;20.962;2023-04-08T00:59:22;95852.44;;;1.77;92.78
23339;BME280;11841;49.368;20.962;2023-04-08T01:05:24;95854.44;;;1.83;91.73
23339;BME280;11841;49.368;20.962;2023-04-08T01:08:13;95862.63;;;1.80;91.32
23339;BME280;11841;49.368;20.962;2023-04-08T01:11:01;95864.88;;;1.75;90.79
23339;BME280;11841;49.368;20.962;2023-04-08T01:13:48;95862.22;;;1.67;90.28
23339;BME280;11841;49.368;20.962;2023-04-08T01:16:39;95866.31;;;1.61;90.12
23339;BME280;11841;49.368;20.962;2023-04-08T01:19:32;95866.94;;;1.55;90.33
23339;BME280;11841;49.368;20.962;2023-04-08T01:22:30;95862.97;;;1.51;89.86
23339;BME280;11841;49.368;20.962;2023-04-08T01:25:29;95868.84;;;1.45;89.69
23339;BME280;11841;49.368;20.962;2023-04-08T01:28:18;95869.97;;;1.43;90.05
23339;BME280;11841;49.368;20.962;2023-04-08T01:31:04;95865.56;;;1.43;89.81
23339;BME280;11841;49.368;20.962;2023-04-08T01:33:50;95871.44;;;1.37;89.29
23339;BME280;11841;49.368;20.962;2023-04-08T01:36:37;95867.66;;;1.32;89.59
23339;BME280;11841;49.368;20.962;2023-04-08T01:39:23;95864.53;;;1.28;89.61
23339;BME280;11841;49.368;20.962;2023-04-08T01:42:10;95865.81;;;1.24;89.10
23339;BME280;11841;49.368;20.962;2023-04-08T01:44:56;95862.69;;;1.20;89.05
23339;BME280;11841;49.368;20.962;2023-04-08T01:47:44;95874.59;;;1.15;88.82
23339;BME280;11841;49.368;20.962;2023-04-08T01:50:33;95877.81;;;1.09;89.42
23339;BME280;11841;49.368;20.962;2023-04-08T01:53:19;95883.84;;;1.09;88.72
23339;BME280;11841;49.368;20.962;2023-04-08T01:56:06;95882.00;;;1.02;89.00
23339;BME280;11841;49.368;20.962;2023-04-08T01:58:54;95879.03;;;0.97;89.04
23339;BME280;11841;49.368;20.962;2023-04-08T02:01:43;95871.34;;;0.95;89.36
23339;BME280;11841;49.368;20.962;2023-04-08T02:04:29;95883.47;;;0.96;88.96
23339;BME280;11841;49.368;20.962;2023-04-08T02:07:16;95886.22;;;0.95;89.00
23339;BME280;11841;49.368;20.962;2023-04-08T02:10:02;95895.31;;;0.91;88.39
23339;BME280;11841;49.368;20.962;2023-04-08T02:12:47;95893.19;;;0.86;88.71
23339;BME280;11841;49.368;20.962;2023-04-08T02:15:34;95898.69;;;0.83;88.25
23339;BME280;11841;49.368;20.962;2023-04-08T02:18:24;95897.69;;;0.76;88.16
23339;BME280;11841;49.368;20.962;2023-04-08T02:21:13;95898.78;;;0.74;88.12
23339;BME280;11841;49.368;20.962;2023-04-08T02:24:04;95902.03;;;0.68;88.23
23339;BME280;11841;49.368;20.962;2023-04-08T02:26:50;95904.38;;;0.61;88.12
23339;BME280;11841;49.368;20.962;2023-04-08T02:29:39;95906.63;;;0.56;88.37
23339;BME280;11841;49.368;20.962;2023-04-08T02:32:25;95902.56;;;0.54;88.34
23339;BME280;11841;49.368;20.962;2023-04-08T02:35:11;95903.38;;;0.54;88.28
23339;BME280;11841;49.368;20.962;2023-04-08T02:37:57;95904.50;;;0.52;87.79
23339;BME280;11841;49.368;20.962;2023-04-08T02:40:42;95902.34;;;0.47;87.71
23339;BME280;11841;49.368;20.962;2023-04-08T02:43:27;95903.75;;;0.42;87.94
23339;BME280;11841;49.368;20.962;2023-04-08T02:46:16;95915.44;;;0.38;87.93
23339;BME280;11841;49.368;20.962;2023-04-08T02:49:01;95921.94;;;0.34;87.81
23339;BME280;11841;49.368;20.962;2023-04-08T02:51:47;95927.75;;;0.28;87.84
23339;BME280;11841;49.368;20.962;2023-04-08T02:54:33;95927.22;;;0.24;88.23
23339;BME280;11841;49.368;20.962;2023-04-08T02:57:18;95921.47;;;0.21;87.99
23339;BME280;11841;49.368;20.962;2023-04-08T03:00:04;95931.38;;;0.17;87.98
23339;BME280;11841;49.368;20.962;2023-04-08T03:02:50;95923.06;;;0.14;87.52
23339;BME280;11841;49.368;20.962;2023-04-08T03:05:36;95927.06;;;0.08;87.63
23339;BME280;11841;49.368;20.962;2023-04-08T03:08:21;95935.19;;;0.05;88.39
23339;BME280;11841;49.368;20.962;2023-04-08T03:11:06;95929.53;;;0.10;88.38
23339;BME280;11841;49.368;20.962;2023-04-08T03:13:52;95938.59;;;0.06;88.24
23339;BME280;11841;49.368;20.962;2023-04-08T03:16:37;95926.84;;;0.02;87.98
23339;BME280;11841;49.368;20.962;2023-04-08T03:19:23;95934.28;;;-0.04;87.98
23339;BME280;11841;49.368;20.962;2023-04-08T03:22:08;95936.50;;;-0.09;87.86
23339;BME280;11841;49.368;20.962;2023-04-08T03:24:56;95935.84;;;-0.11;87.85
23339;BME280;11841;49.368;20.962;2023-04-08T03:27:41;95935.16;;;-0.13;87.82
23339;BME280;11841;49.368;20.962;2023-04-08T03:30:27;95937.91;;;-0.14;88.04
23339;BME280;11841;49.368;20.962;2023-04-08T03:33:12;95937.75;;;-0.13;88.12
23339;BME280;11841;49.368;20.962;2023-04-08T03:35:57;95945.56;;;-0.13;88.48
23339;BME280;11841;49.368;20.962;2023-04-08T03:38:43;95948.56;;;-0.08;88.07
23339;BME280;11841;49.368;20.962;2023-04-08T03:41:28;95950.78;;;-0.13;87.91
23339;BME280;11841;49.368;20.962;2023-04-08T03:44:14;95955.47;;;-0.16;87.68
23339;BME280;11841;49.368;20.962;2023-04-08T03:46:59;95958.78;;;-0.24;87.48
23339;BME280;11841;49.368;20.962;2023-04-08T03:49:44;95949.63;;;-0.28;87.41
23339;BME280;11841;49.368;20.962;2023-04-08T03:52:30;95950.59;;;-0.29;87.92
23339;BME280;11841;49.368;20.962;2023-04-08T03:55:15;95951.13;;;-0.25;87.93
23339;BME280;11841;49.368;20.962;2023-04-08T03:58:01;95962.06;;;-0.22;88.26
23339;BME280;11841;49.368;20.962;2023-04-08T04:00:46;95962.47;;;-0.17;88.22
23339;BME280;11841;49.368;20.962;2023-04-08T04:03:31;95955.09;;;-0.21;87.57
23339;BME280;11841;49.368;20.962;2023-04-08T04:06:17;95959.91;;;-0.26;87.60
23339;BME280;11841;49.368;20.962;2023-04-08T04:09:02;95956.78;;;-0.30;87.61
23339;BME280;11841;49.368;20.962;2023-04-08T04:11:47;95946.66;;;-0.33;87.51
23339;BME280;11841;49.368;20.962;2023-04-08T04:14:33;95963.22;;;-0.34;87.99
23339;BME280;11841;49.368;20.962;2023-04-08T04:17:18;95961.59;;;-0.35;87.65
23339;BME280;11841;49.368;20.962;2023-04-08T04:20:04;95969.56;;;-0.36;87.71
23339;BME280;11841;49.368;20.962;2023-04-08T04:22:50;95970.38;;;-0.36;87.93
23339;BME280;11841;49.368;20.962;2023-04-08T04:25:36;95976.25;;;-0.34;88.07
23339;BME280;11841;49.368;20.962;2023-04-08T04:28:23;95972.69;;;-0.33;88.18
23339;BME280;11841;49.368;20.962;2023-04-08T04:31:17;95966.81;;;-0.35;88.08
23339;BME280;11841;49.368;20.962;2023-04-08T04:34:03;95977.91;;;-0.33;88.53
23339;BME280;11841;49.368;20.962;2023-04-08T04:36:49;95982.97;;;-0.31;87.97
23339;BME280;11841;49.368;20.962;2023-04-08T04:39:35;95971.88;;;-0.33;88.23
23339;BME280;11841;49.368;20.962;2023-04-08T04:42:20;95990.25;;;-0.35;87.84
23339;BME280;11841;49.368;20.962;2023-04-08T04:45:06;95993.16;;;-0.38;88.35
23339;BME280;11841;49.368;20.962;2023-04-08T04:47:51;96004.09;;;-0.34;88.70
23339;BME280;11841;49.368;20.962;2023-04-08T04:50:36;95999.53;;;-0.32;88.47
23339;BME280;11841;49.368;20.962;2023-04-08T04:53:22;96001.66;;;-0.36;88.37
23339;BME280;11841;49.368;20.962;2023-04-08T04:56:07;96007.94;;;-0.38;88.63
23339;BME280;11841;49.368;20.962;2023-04-08T04:58:53;96007.66;;;-0.35;88.99
23339;BME280;11841;49.368;20.962;2023-04-08T05:01:38;96006.84;;;-0.36;88.92
23339;BME280;11841;49.368;20.962;2023-04-08T05:04:25;96009.84;;;-0.31;89.14
23339;BME280;11841;49.368;20.962;2023-04-08T05:07:11;96009.56;;;-0.28;88.90
23339;BME280;11841;49.368;20.962;2023-04-08T05:09:56;96008.59;;;-0.27;89.00
23339;BME280;11841;49.368;20.962;2023-04-08T05:12:41;96011.56;;;-0.22;89.28
23339;BME280;11841;49.368;20.962;2023-04-08T05:15:26;96015.16;;;-0.23;89.62
23339;BME280;11841;49.368;20.962;2023-04-08T05:18:12;96022.81;;;-0.21;89.83
23339;BME280;11841;49.368;20.962;2023-04-08T05:20:57;96014.88;;;-0.20;90.13
23339;BME280;11841;49.368;20.962;2023-04-08T05:23:43;96012.50;;;-0.13;89.97
23339;BME280;11841;49.368;20.962;2023-04-08T05:26:28;96028.75;;;-0.02;90.34
23339;BME280;11841;49.368;20.962;2023-04-08T05:29:13;96029.28;;;0.02;90.30
23339;BME280;11841;49.368;20.962;2023-04-08T05:31:58;96032.59;;;0.04;90.21
23339;BME280;11841;49.368;20.962;2023-04-08T05:34:44;96024.47;;;0.07;90.46
23339;BME280;11841;49.368;20.962;2023-04-08T05:37:29;96029.41;;;0.10;90.25
23339;BME280;11841;49.368;20.962;2023-04-08T05:40:15;96027.59;;;0.11;90.96
23339;BME280;11841;49.368;20.962;2023-04-08T05:43:00;96029.94;;;0.14;91.10
23339;BME280;11841;49.368;20.962;2023-04-08T05:45:45;96024.72;;;0.14;91.37
23339;BME280;11841;49.368;20.962;2023-04-08T05:48:31;96028.00;;;0.16;91.42
23339;BME280;11841;49.368;20.962;2023-04-08T05:51:16;96033.75;;;0.19;91.84
23339;BME280;11841;49.368;20.962;2023-04-08T05:54:02;96025.19;;;0.27;91.89
23339;BME280;11841;49.368;20.962;2023-04-08T05:56:47;96029.81;;;0.33;91.66
23339;BME280;11841;49.368;20.962;2023-04-08T05:59:32;96031.19;;;0.37;91.93
23339;BME280;11841;49.368;20.962;2023-04-08T06:02:18;96022.38;;;0.38;92.20
23339;BME280;11841;49.368;20.962;2023-04-08T06:05:03;96014.28;;;0.41;92.43
23339;BME280;11841;49.368;20.962;2023-04-08T06:07:50;96022.47;;;0.46;92.99
23339;BME280;11841;49.368;20.962;2023-04-08T06:10:35;96021.88;;;0.52;92.91
23339;BME280;11841;49.368;20.962;2023-04-08T06:13:21;96017.88;;;0.57;93.21
23339;BME280;11841;49.368;20.962;2023-04-08T06:16:13;96016.47;;;0.63;93.48
23339;BME280;11841;49.368;20.962;2023-04-08T06:18:59;96021.38;;;0.66;93.30
23339;BME280;11841;49.368;20.962;2023-04-08T06:21:44;96027.38;;;0.66;93.72
23339;BME280;11841;49.368;20.962;2023-04-08T06:24:31;96023.22;;;0.73;93.90
23339;BME280;11841;49.368;20.962;2023-04-08T06:27:17;96029.19;;;0.83;94.06
23339;BME280;11841;49.368;20.962;2023-04-08T06:30:03;96025.00;;;0.90;94.26
23339;BME280;11841;49.368;20.962;2023-04-08T06:32:48;96023.28;;;0.99;94.92
23339;BME280;11841;49.368;20.962;2023-04-08T06:35:33;96021.56;;;1.07;94.68
23339;BME280;11841;49.368;20.962;2023-04-08T06:38:19;96027.00;;;1.14;94.42
23339;BME280;11841;49.368;20.962;2023-04-08T06:41:07;96025.44;;;1.21;94.11
23339;BME280;11841;49.368;20.962;2023-04-08T06:43:52;96026.63;;;1.27;94.21
23339;BME280;11841;49.368;20.962;2023-04-08T06:46:38;96031.38;;;1.31;94.25
23339;BME280;11841;49.368;20.962;2023-04-08T06:49:23;96038.91;;;1.34;94.77
23339;BME280;11841;49.368;20.962;2023-04-08T06:52:08;96042.19;;;1.36;95.41
23339;BME280;11841;49.368;20.962;2023-04-08T06:54:53;96043.53;;;1.40;95.01
23339;BME280;11841;49.368;20.962;2023-04-08T06:57:39;96047.50;;;1.44;95.36
23339;BME280;11841;49.368;20.962;2023-04-08T07:00:24;96040.66;;;1.51;94.90
23339;BME280;11841;49.368;20.962;2023-04-08T07:03:09;96039.75;;;1.60;94.47
23339;BME280;11841;49.368;20.962;2023-04-08T07:05:55;96032.09;;;1.67;94.75
23339;BME280;11841;49.368;20.962;2023-04-08T07:08:41;96037.53;;;1.73;94.65
23339;BME280;11841;49.368;20.962;2023-04-08T07:11:26;96041.47;;;1.77;95.38
23339;BME280;11841;49.368;20.962;2023-04-08T07:14:12;96043.34;;;1.85;95.07
23339;BME280;11841;49.368;20.962;2023-04-08T07:16:57;96048.75;;;1.91;94.90
23339;BME280;11841;49.368;20.962;2023-04-08T07:19:42;96051.72;;;1.96;94.98
23339;BME280;11841;49.368;20.962;2023-04-08T07:22:28;96054.19;;;1.98;95.42
23339;BME280;11841;49.368;20.962;2023-04-08T07:25:13;96063.84;;;2.05;95.26
23339;BME280;11841;49.368;20.962;2023-04-08T07:27:58;96062.88;;;2.06;95.00
23339;BME280;11841;49.368;20.962;2023-04-08T07:30:43;96059.63;;;2.12;95.33
23339;BME280;11841;49.368;20.962;2023-04-08T07:33:29;96073.22;;;2.16;95.04
23339;BME280;11841;49.368;20.962;2023-04-08T07:36:14;96070.75;;;2.14;95.18
23339;BME280;11841;49.368;20.962;2023-04-08T07:39:02;96077.00;;;2.21;95.15
23339;BME280;11841;49.368;20.962;2023-04-08T07:41:47;96067.56;;;2.28;95.63
23339;BME280;11841;49.368;20.962;2023-04-08T07:44:33;96070.19;;;2.36;96.47
23339;BME280;11841;49.368;20.962;2023-04-08T07:47:18;96073.50;;;2.46;96.48
23339;BME280;11841;49.368;20.962;2023-04-08T07:50:04;96068.63;;;2.52;95.87
23339;BME280;11841;49.368;20.962;2023-04-08T07:52:49;96074.88;;;2.59;95.73
23339;BME280;11841;49.368;20.962;2023-04-08T07:55:37;96064.41;;;2.67;95.19
23339;BME280;11841;49.368;20.962;2023-04-08T07:58:24;96065.56;;;2.72;95.36
23339;BME280;11841;49.368;20.962;2023-04-08T08:01:20;96063.47;;;2.76;94.67
23339;BME280;11841;49.368;20.962;2023-04-08T08:04:06;96063.31;;;2.85;94.90
23339;BME280;11841;49.368;20.962;2023-04-08T08:06:51;96057.94;;;2.95;94.94
23339;BME280;11841;49.368;20.962;2023-04-08T08:09:37;96056.94;;;3.04;94.38
23339;BME280;11841;49.368;20.962;2023-04-08T08:12:22;96057.31;;;3.09;93.65
23339;BME280;11841;49.368;20.962;2023-04-08T08:15:08;96062.88;;;3.14;93.55
23339;BME280;11841;49.368;20.962;2023-04-08T08:17:54;96073.03;;;3.25;94.00
23339;BME280;11841;49.368;20.962;2023-04-08T08:20:39;96069.09;;;3.29;93.19
23339;BME280;11841;49.368;20.962;2023-04-08T08:23:24;96065.81;;;3.35;92.41
23339;BME280;11841;49.368;20.962;2023-04-08T08:26:09;96072.72;;;3.36;91.89
23339;BME280;11841;49.368;20.962;2023-04-08T08:28:55;96068.13;;;3.46;92.67
23339;BME280;11841;49.368;20.962;2023-04-08T08:31:40;96066.78;;;3.50;91.46
23339;BME280;11841;49.368;20.962;2023-04-08T08:34:25;96066.94;;;3.56;91.68
23339;BME280;11841;49.368;20.962;2023-04-08T08:37:11;96063.84;;;3.61;91.29
23339;BME280;11841;49.368;20.962;2023-04-08T08:39:56;96058.44;;;3.70;91.65
23339;BME280;11841;49.368;20.962;2023-04-08T08:42:51;96067.09;;;3.79;91.54
23339;BME280;11841;49.368;20.962;2023-04-08T08:45:40;96066.75;;;3.82;89.97
23339;BME280;11841;49.368;20.962;2023-04-08T08:48:26;96072.31;;;3.87;90.12
23339;BME280;11841;49.368;20.962;2023-04-08T08:51:12;96071.50;;;3.95;90.74
23339;BME280;11841;49.368;20.962;2023-04-08T08:54:01;96066.75;;;3.98;90.35
23339;BME280;11841;49.368;20.962;2023-04-08T08:56:46;96073.94;;;4.04;90.50
23339;BME280;11841;49.368;20.962;2023-04-08T08:59:32;96081.16;;;4.10;90.15
23339;BME280;11841;49.368;20.962;2023-04-08T09:02:27;96083.09;;;4.16;90.48
23339;BME280;11841;49.368;20.962;2023-04-08T09:05:13;96080.47;;;4.16;90.03
23339;BME280;11841;49.368;20.962;2023-04-08T09:07:58;96079.81;;;4.22;90.72
23339;BME280;11841;49.368;20.962;2023-04-08T09:10:44;96081.91;;;4.27;90.91
23339;BME280;11841;49.368;20.962;2023-04-08T09:13:34;96082.75;;;4.27;90.17
23339;BME280;11841;49.368;20.962;2023-04-08T09:16:21;96081.56;;;4.30;90.21
23339;BME280;11841;49.368;20.962;2023-04-08T09:19:09;96075.66;;;4.36;90.64
23339;BME280;11841;49.368;20.962;2023-04-08T09:22:09;96082.66;;;4.43;90.53
23339;BME280;11841;49.368;20.962;2023-04-08T09:24:55;96079.22;;;4.51;90.20
23339;BME280;11841;49.368;20.962;2023-04-08T09:27:41;96080.16;;;4.58;90.14
23339;BME280;11841;49.368;20.962;2023-04-08T09:30:26;96082.28;;;4.62;90.23
23339;BME280;11841;49.368;20.962;2023-04-08T09:33:12;96086.50;;;4.71;90.47
23339;BME280;11841;49.368;20.962;2023-04-08T09:35:58;96088.31;;;4.71;90.59
23339;BME280;11841;49.368;20.962;2023-04-08T09:38:43;96092.72;;;4.70;90.09
23339;BME280;11841;49.368;20.962;2023-04-08T09:41:32;96090.75;;;4.72;89.87
23339;BME280;11841;49.368;20.962;2023-04-08T09:44:19;96087.47;;;4.78;89.79
23339;BME280;11841;49.368;20.962;2023-04-08T09:47:17;96092.72;;;4.78;88.84
23339;BME280;11841;49.368;20.962;2023-04-08T09:50:05;96091.31;;;4.90;89.75
23339;BME280;11841;49.368;20.962;2023-04-08T09:52:59;96087.94;;;5.05;90.41
23339;BME280;11841;49.368;20.962;2023-04-08T09:55:49;96090.53;;;5.13;89.00
23339;BME280;11841;49.368;20.962;2023-04-08T09:58:54;96090.03;;;5.17;88.25
23339;BME280;11841;49.368;20.962;2023-04-08T10:01:45;96088.66;;;5.21;89.25
23339;BME280;11841;49.368;20.962;2023-04-08T10:04:38;96088.16;;;5.26;88.99
23339;BME280;11841;49.368;20.962;2023-04-08T10:07:26;96079.84;;;5.37;89.61
23339;BME280;11841;49.368;20.962;2023-04-08T10:10:11;96081.97;;;5.41;88.68
23339;BME280;11841;49.368;20.962;2023-04-08T10:12:57;96081.44;;;5.46;88.71
23339;BME280;11841;49.368;20.962;2023-04-08T10:15:42;96081.72;;;5.51;88.41
23339;BME280;11841;49.368;20.962;2023-04-08T10:18:31;96087.34;;;5.48;87.07
23339;BME280;11841;49.368;20.962;2023-04-08T10:24:15;96081.19;;;5.55;86.24
23339;BME280;11841;49.368;20.962;2023-04-08T10:27:02;96075.88;;;5.63;87.24
23339;BME280;11841;49.368;20.962;2023-04-08T10:29:49;96071.34;;;5.72;86.93
23339;BME280;11841;49.368;20.962;2023-04-08T10:32:39;96072.25;;;5.79;86.59
23339;BME280;11841;49.368;20.962;2023-04-08T10:35:34;96071.41;;;5.86;86.64
23339;BME280;11841;49.368;20.962;2023-04-08T10:38:21;96076.84;;;5.85;86.11
23339;BME280;11841;49.368;20.962;2023-04-08T10:41:06;96082.78;;;5.79;86.56
23339;BME280;11841;49.368;20.962;2023-04-08T10:43:52;96092.28;;;5.65;88.04
23339;BME280;11841;49.368;20.962;2023-04-08T10:46:37;96092.31;;;5.43;88.19
23339;BME280;11841;49.368;20.962;2023-04-08T10:49:31;96086.78;;;5.30;89.54
23339;BME280;11841;49.368;20.962;2023-04-08T10:52:17;96093.25;;;5.27;91.16
23339;BME280;11841;49.368;20.962;2023-04-08T10:55:04;96098.84;;;5.24;91.18
23339;BME280;11841;49.368;20.962;2023-04-08T10:57:50;96095.69;;;5.29;91.36
23339;BME280;11841;49.368;20.962;2023-04-08T11:00:37;96092.22;;;5.28;92.21
23339;BME280;11841;49.368;20.962;2023-04-08T11:03:22;96099.19;;;5.21;92.42
23339;BME280;11841;49.368;20.962;2023-04-08T11:06:11;96094.16;;;5.12;93.13
23339;BME280;11841;49.368;20.962;2023-04-08T11:08:57;96089.53;;;5.14;93.81
23339;BME280;11841;49.368;20.962;2023-04-08T11:11:45;96098.59;;;5.11;94.30
23339;BME280;11841;49.368;20.962;2023-04-08T11:14:30;96097.78;;;5.11;94.40
23339;BME280;11841;49.368;20.962;2023-04-08T11:17:17;96098.47;;;5.05;94.40
23339;BME280;11841;49.368;20.962;2023-04-08T11:20:03;96095.47;;;5.08;94.40
23339;BME280;11841;49.368;20.962;2023-04-08T11:22:50;96100.78;;;5.00;94.24
23339;BME280;11841;49.368;20.962;2023-04-08T11:25:36;96111.53;;;4.90;94.05
23339;BME280;11841;49.368;20.962;2023-04-08T11:28:21;96108.28;;;4.80;94.43
23339;BME280;11841;49.368;20.962;2023-04-08T11:31:07;96108.63;;;4.77;95.20
23339;BME280;11841;49.368;20.962;2023-04-08T11:33:53;96108.59;;;4.85;95.34
23339;BME280;11841;49.368;20.962;2023-04-08T11:36:40;96108.59;;;4.85;96.06
23339;BME280;11841;49.368;20.962;2023-04-08T11:39:25;96110.00;;;4.95;95.89
23339;BME280;11841;49.368;20.962;2023-04-08T11:45:13;96122.00;;;4.98;97.69
23339;BME280;11841;49.368;20.962;2023-04-08T11:47:59;96113.28;;;4.97;96.90
23339;BME280;11841;49.368;20.962;2023-04-08T11:51:03;96112.94;;;5.01;97.03
23339;BME280;11841;49.368;20.962;2023-04-08T11:53:48;96114.88;;;5.07;96.64
23339;BME280;11841;49.368;20.962;2023-04-08T11:56:46;96111.25;;;5.08;97.79
23339;BME280;11841;49.368;20.962;2023-04-08T11:59:30;96118.50;;;5.06;97.22
23339;BME280;11841;49.368;20.962;2023-04-08T12:02:16;96117.50;;;5.07;97.85
23339;BME280;11841;49.368;20.962;2023-04-08T12:05:02;96118.63;;;5.12;97.88
23339;BME280;11841;49.368;20.962;2023-04-08T12:07:47;96116.94;;;5.19;98.33
23339;BME280;11841;49.368;20.962;2023-04-08T12:10:32;96121.50;;;5.25;97.85
23339;BME280;11841;49.368;20.962;2023-04-08T12:13:18;96116.06;;;5.27;98.12
23339;BME280;11841;49.368;20.962;2023-04-08T12:16:03;96117.06;;;5.26;97.55
23339;BME280;11841;49.368;20.962;2023-04-08T12:18:49;96111.00;;;5.25;98.54
23339;BME280;11841;49.368;20.962;2023-04-08T12:21:34;96117.72;;;5.28;98.73
23339;BME280;11841;49.368;20.962;2023-04-08T12:24:20;96116.72;;;5.29;99.61
23339;BME280;11841;49.368;20.962;2023-04-08T12:27:05;96116.44;;;5.24;99.11
23339;BME280;11841;49.368;20.962;2023-04-08T12:29:50;96110.16;;;5.25;99.45
23339;BME280;11841;49.368;20.962;2023-04-08T12:32:37;96105.56;;;5.27;98.82
23339;BME280;11841;49.368;20.962;2023-04-08T12:35:22;96111.63;;;5.27;98.60
23339;BME280;11841;49.368;20.962;2023-04-08T12:38:07;96108.00;;;5.28;99.15
23339;BME280;11841;49.368;20.962;2023-04-08T12:40:54;96109.38;;;5.24;98.97
23339;BME280;11841;49.368;20.962;2023-04-08T12:43:39;96107.25;;;5.20;98.46
23339;BME280;11841;49.368;20.962;2023-04-08T12:46:24;96110.88;;;5.19;97.90
23339;BME280;11841;49.368;20.962;2023-04-08T12:49:10;96111.25;;;5.08;97.95
23339;BME280;11841;49.368;20.962;2023-04-08T12:51:56;96119.31;;;5.06;98.40
23339;BME280;11841;49.368;20.962;2023-04-08T12:54:42;96112.94;;;5.01;98.50
23339;BME280;11841;49.368;20.962;2023-04-08T12:57:27;96123.19;;;4.87;98.52
23339;BME280;11841;49.368;20.962;2023-04-08T13:00:13;96117.97;;;4.79;97.96
23339;BME280;11841;49.368;20.962;2023-04-08T13:02:58;96116.66;;;4.75;98.79
23339;BME280;11841;49.368;20.962;2023-04-08T13:05:43;96112.06;;;4.77;98.92
23339;BME280;11841;49.368;20.962;2023-04-08T13:08:28;96112.06;;;4.77;99.08
23339;BME280;11841;49.368;20.962;2023-04-08T13:11:14;96108.97;;;4.74;98.70
23339;BME280;11841;49.368;20.962;2023-04-08T13:13:59;96120.25;;;4.82;98.47
23339;BME280;11841;49.368;20.962;2023-04-08T13:16:44;96108.72;;;4.91;97.48
23339;BME280;11841;49.368;20.962;2023-04-08T13:19:30;96112.13;;;5.00;98.33
23339;BME280;11841;49.368;20.962;2023-04-08T13:22:16;96115.88;;;5.06;98.09
23339;BME280;11841;49.368;20.962;2023-04-08T13:25:01;96111.06;;;5.09;98.14
23339;BME280;11841;49.368;20.962;2023-04-08T13:27:47;96110.50;;;5.22;97.69
23339;BME280;11841;49.368;20.962;2023-04-08T13:30:33;96110.13;;;5.33;98.22
23339;BME280;11841;49.368;20.962;2023-04-08T13:33:19;96104.81;;;5.41;97.58
23339;BME280;11841;49.368;20.962;2023-04-08T13:36:04;96108.38;;;5.48;97.60
23339;BME280;11841;49.368;20.962;2023-04-08T13:38:50;96109.16;;;5.48;97.03
23339;BME280;11841;49.368;20.962;2023-04-08T13:41:36;96114.09;;;5.29;95.55
23339;BME280;11841;49.368;20.962;2023-04-08T13:44:23;96116.00;;;5.35;96.83
23339;BME280;11841;49.368;20.962;2023-04-08T13:47:09;96110.19;;;5.47;97.73
23339;BME280;11841;49.368;20.962;2023-04-08T13:49:54;96111.94;;;5.55;97.48
23339;BME280;11841;49.368;20.962;2023-04-08T13:52:40;96111.88;;;5.63;96.67
23339;BME280;11841;49.368;20.962;2023-04-08T13:55:25;96119.03;;;5.69;96.49
23339;BME280;11841;49.368;20.962;2023-04-08T13:58:10;96120.34;;;5.73;96.23
23339;BME280;11841;49.368;20.962;2023-04-08T14:01:07;96116.25;;;5.70;95.82
23339;BME280;11841;49.368;20.962;2023-04-08T14:03:53;96120.34;;;5.73;95.67
23339;BME280;11841;49.368;20.962;2023-04-08T14:06:39;96122.59;;;5.76;94.76
23339;BME280;11841;49.368;20.962;2023-04-08T14:09:24;96125.50;;;5.66;94.59
23339;BME280;11841;49.368;20.962;2023-04-08T14:12:10;96125.97;;;5.70;94.80
23339;BME280;11841;49.368;20.962;2023-04-08T14:14:56;96119.16;;;5.75;94.43
23339;BME280;11841;49.368;20.962;2023-04-08T14:17:42;96122.91;;;5.81;94.46
23339;BME280;11841;49.368;20.962;2023-04-08T14:20:27;96127.03;;;5.83;94.11
23339;BME280;11841;49.368;20.962;2023-04-08T14:23:12;96119.94;;;5.84;94.19
23339;BME280;11841;49.368;20.962;2023-04-08T14:25:57;96122.56;;;5.84;93.73
23339;BME280;11841;49.368;20.962;2023-04-08T14:28:45;96126.91;;;5.77;93.92
23339;BME280;11841;49.368;20.962;2023-04-08T14:31:32;96125.25;;;5.76;93.79
23339;BME280;11841;49.368;20.962;2023-04-08T14:34:17;96136.72;;;5.83;93.61
23339;BME280;11841;49.368;20.962;2023-04-08T14:37:04;96134.75;;;5.85;93.62
23339;BME280;11841;49.368;20.962;2023-04-08T14:39:49;96140.66;;;5.87;93.43
23339;BME280;11841;49.368;20.962;2023-04-08T14:42:35;96130.59;;;5.90;93.15
23339;BME280;11841;49.368;20.962;2023-04-08T14:45:21;96131.09;;;5.86;93.63
23339;BME280;11841;49.368;20.962;2023-04-08T14:48:07;96127.81;;;5.84;93.68